sensor_id;sensor_type;location;lat;lon;timestamp;pressure;altitude;pressure_sealevel;temperature;humidity
75312;BME280;63906;55.686;37.532;2023-11-19T00:03:41;100471.50;;;-5.29;93.93
75312;BME280;63906;55.686;37.532;2023-11-19T00:08:41;100443.50;;;-5.73;90.89
75312;BME280;63906;55.686;37.532;2023-11-19T00:13:41;100454.84;;;-5.58;93.02
75312;BME280;63906;55.686;37.532;2023-11-19T00:18:42;100435.06;;;-5.93;92.06
75312;BME280;63906;55.686;37.532;2023-11-19T00:23:42;100438.19;;;-6.07;91.70
75312;BME280;63906;55.686;37.532;2023-11-19T00:28:43;100446.56;;;-6.44;91.59
75312;BME280;63906;55.686;37.532;2023-11-19T00:33:44;100459.13;;;-6.38;91.97
75312;BME280;63906;55.686;37.532;2023-11-19T00:38:44;100425.50;;;-6.73;91.55
75312;BME280;63906;55.686;37.532;2023-11-19T00:43:45;100427.31;;;-6.75;91.50
75312;BME280;63906;55.686;37.532;2023-11-19T00:48:45;100450.66;;;-6.83;90.56
75312;BME280;63906;55.686;37.532;2023-11-19T00:53:47;100421.09;;;-6.91;91.04
75312;BME280;63906;55.686;37.532;2023-11-19T00:58:48;100410.22;;;-7.18;90.88
75312;BME280;63906;55.686;37.532;2023-11-19T01:03:48;100418.59;;;-7.15;91.10
75312;BME280;63906;55.686;37.532;2023-11-19T01:08:48;100423.00;;;-7.18;91.11
75312;BME280;63906;55.686;37.532;2023-11-19T01:13:49;100380.53;;;-7.44;90.82
75312;BME280;63906;55.686;37.532;2023-11-19T01:18:50;100401.38;;;-7.33;90.97
75312;BME280;63906;55.686;37.532;2023-11-19T01:23:50;100398.22;;;-7.40;90.49
75312;BME280;63906;55.686;37.532;2023-11-19T01:28:51;100385.13;;;-7.54;90.44
75312;BME280;63906;55.686;37.532;2023-11-19T01:33:53;100396.84;;;-7.48;90.72
75312;BME280;63906;55.686;37.532;2023-11-19T01:38:53;100337.53;;;-7.80;90.95
75312;BME280;63906;55.686;37.532;2023-11-19T01:43:53;100392.63;;;-7.49;91.05
75312;BME280;63906;55.686;37.532;2023-11-19T01:48:54;100381.06;;;-7.60;90.76
75312;BME280;63906;55.686;37.532;2023-11-19T01:53:57;100373.34;;;-7.58;90.84
75312;BME280;63906;55.686;37.532;2023-11-19T01:58:58;100386.09;;;-7.35;91.38
75312;BME280;63906;55.686;37.532;2023-11-19T02:03:59;100345.19;;;-7.56;91.86
75312;BME280;63906;55.686;37.532;2023-11-19T02:09:00;100378.59;;;-7.39;91.05
75312;BME280;63906;55.686;37.532;2023-11-19T02:14:01;100414.06;;;-7.30;90.52
75312;BME280;63906;55.686;37.532;2023-11-19T02:19:03;100395.72;;;-7.41;90.47
75312;BME280;63906;55.686;37.532;2023-11-19T02:24:08;100333.31;;;-7.81;90.40
75312;BME280;63906;55.686;37.532;2023-11-19T02:29:12;100393.53;;;-7.50;90.81
75312;BME280;63906;55.686;37.532;2023-11-19T02:34:13;100384.44;;;-7.57;90.73
75312;BME280;63906;55.686;37.532;2023-11-19T02:39:13;100392.88;;;-7.55;91.01
75312;BME280;63906;55.686;37.532;2023-11-19T02:44:15;100374.44;;;-7.64;90.72
75312;BME280;63906;55.686;37.532;2023-11-19T02:49:16;100366.09;;;-7.69;91.07
75312;BME280;63906;55.686;37.532;2023-11-19T02:54:16;100382.63;;;-7.55;91.61
75312;BME280;63906;55.686;37.532;2023-11-19T02:59:17;100370.91;;;-7.61;91.15
75312;BME280;63906;55.686;37.532;2023-11-19T03:04:27;100329.41;;;-7.91;91.24
75312;BME280;63906;55.686;37.532;2023-11-19T03:09:28;100370.03;;;-7.60;90.99
75312;BME280;63906;55.686;37.532;2023-11-19T03:14:29;100360.97;;;-7.69;91.08
75312;BME280;63906;55.686;37.532;2023-11-19T03:19:31;100355.63;;;-7.63;90.90
75312;BME280;63906;55.686;37.532;2023-11-19T03:24:31;100312.53;;;-7.95;91.05
75312;BME280;63906;55.686;37.532;2023-11-19T03:29:32;100359.41;;;-7.73;91.09
75312;BME280;63906;55.686;37.532;2023-11-19T03:34:33;100362.50;;;-7.65;91.51
75312;BME280;63906;55.686;37.532;2023-11-19T03:39:33;100305.75;;;-7.73;92.93
75312;BME280;63906;55.686;37.532;2023-11-19T03:44:34;100347.03;;;-7.16;93.46
75312;BME280;63906;55.686;37.532;2023-11-19T03:49:34;100354.34;;;-6.65;94.48
75312;BME280;63906;55.686;37.532;2023-11-19T03:54:34;100283.72;;;-6.69;93.95
75312;BME280;63906;55.686;37.532;2023-11-19T03:59:35;100335.75;;;-6.09;94.36
75312;BME280;63906;55.686;37.532;2023-11-19T04:04:36;100327.19;;;-5.70;94.93
75312;BME280;63906;55.686;37.532;2023-11-19T04:09:37;100314.84;;;-5.62;94.58
75312;BME280;63906;55.686;37.532;2023-11-19T04:14:38;100297.22;;;-5.51;94.14
75312;BME280;63906;55.686;37.532;2023-11-19T04:19:38;100235.91;;;-5.74;94.28
75312;BME280;63906;55.686;37.532;2023-11-19T04:24:41;100293.72;;;-5.31;93.20
75312;BME280;63906;55.686;37.532;2023-11-19T04:29:44;100277.81;;;-5.20;94.87
75312;BME280;63906;55.686;37.532;2023-11-19T04:34:47;100238.06;;;-5.48;92.63
75312;BME280;63906;55.686;37.532;2023-11-19T04:39:47;100282.56;;;-5.12;94.78
75312;BME280;63906;55.686;37.532;2023-11-19T04:44:48;100302.13;;;-5.10;91.83
75312;BME280;63906;55.686;37.532;2023-11-19T04:49:48;100319.50;;;-4.98;90.15
75312;BME280;63906;55.686;37.532;2023-11-19T04:54:48;100307.41;;;-4.78;94.80
75312;BME280;63906;55.686;37.532;2023-11-19T04:59:49;100317.38;;;-4.72;94.19
75312;BME280;63906;55.686;37.532;2023-11-19T05:04:50;100241.50;;;-5.12;94.42
75312;BME280;63906;55.686;37.532;2023-11-19T05:09:50;100303.81;;;-4.74;93.26
75312;BME280;63906;55.686;37.532;2023-11-19T05:14:51;100289.00;;;-4.87;90.03
75312;BME280;63906;55.686;37.532;2023-11-19T05:19:52;100295.78;;;-4.68;92.93
75312;BME280;63906;55.686;37.532;2023-11-19T05:24:52;100323.81;;;-4.64;91.32
75312;BME280;63906;55.686;37.532;2023-11-19T05:29:53;100319.00;;;-4.52;92.25
75312;BME280;63906;55.686;37.532;2023-11-19T05:34:53;100273.06;;;-4.58;93.72
75312;BME280;63906;55.686;37.532;2023-11-19T05:39:57;100313.16;;;-4.56;84.60
75312;BME280;63906;55.686;37.532;2023-11-19T05:44:57;100323.00;;;-4.47;89.05
75312;BME280;63906;55.686;37.532;2023-11-19T05:49:58;100313.16;;;-4.56;89.83
75312;BME280;63906;55.686;37.532;2023-11-19T05:55:02;100315.28;;;-4.81;86.29
75312;BME280;63906;55.686;37.532;2023-11-19T06:00:06;100252.78;;;-5.15;84.43
75312;BME280;63906;55.686;37.532;2023-11-19T06:05:08;100276.06;;;-4.85;91.37
75312;BME280;63906;55.686;37.532;2023-11-19T06:10:10;100290.31;;;-4.78;83.55
75312;BME280;63906;55.686;37.532;2023-11-19T06:15:11;100244.97;;;-4.79;93.15
75312;BME280;63906;55.686;37.532;2023-11-19T06:20:11;100296.09;;;-4.57;91.43
75312;BME280;63906;55.686;37.532;2023-11-19T06:25:12;100306.19;;;-4.37;94.29
75312;BME280;63906;55.686;37.532;2023-11-19T06:30:14;100311.34;;;-4.54;89.47
75312;BME280;63906;55.686;37.532;2023-11-19T06:35:15;100289.44;;;-4.44;92.18
75312;BME280;63906;55.686;37.532;2023-11-19T06:40:15;100312.41;;;-4.41;90.00
75312;BME280;63906;55.686;37.532;2023-11-19T06:45:16;100295.69;;;-4.32;93.92
75312;BME280;63906;55.686;37.532;2023-11-19T06:50:17;100241.41;;;-4.59;90.13
75312;BME280;63906;55.686;37.532;2023-11-19T06:55:18;100280.50;;;-4.37;87.91
75312;BME280;63906;55.686;37.532;2023-11-19T07:00:18;100292.81;;;-4.10;93.04
75312;BME280;63906;55.686;37.532;2023-11-19T07:05:19;100288.38;;;-4.24;92.91
75312;BME280;63906;55.686;37.532;2023-11-19T07:10:19;100252.31;;;-4.38;95.09
75312;BME280;63906;55.686;37.532;2023-11-19T07:15:20;100287.22;;;-4.34;87.67
75312;BME280;63906;55.686;37.532;2023-11-19T07:20:20;100266.19;;;-4.75;84.88
75312;BME280;63906;55.686;37.532;2023-11-19T07:25:21;100252.69;;;-4.96;88.51
75312;BME280;63906;55.686;37.532;2023-11-19T07:30:22;100302.19;;;-5.11;79.65
75312;BME280;63906;55.686;37.532;2023-11-19T07:35:23;100296.84;;;-4.55;91.23
75312;BME280;63906;55.686;37.532;2023-11-19T07:40:24;100143.78;;;-5.60;89.36
75312;BME280;63906;55.686;37.532;2023-11-19T07:45:24;100302.75;;;-4.88;82.61
75312;BME280;63906;55.686;37.532;2023-11-19T07:50:25;100298.00;;;-4.78;83.71
75312;BME280;63906;55.686;37.532;2023-11-19T07:55:25;100297.97;;;-4.61;86.35
75312;BME280;63906;55.686;37.532;2023-11-19T08:00:27;100304.81;;;-4.26;93.24
75312;BME280;63906;55.686;37.532;2023-11-19T08:05:27;100299.16;;;-4.33;91.89
75312;BME280;63906;55.686;37.532;2023-11-19T08:10:28;100273.09;;;-4.43;81.93
75312;BME280;63906;55.686;37.532;2023-11-19T08:15:29;100268.13;;;-4.46;90.26
75312;BME280;63906;55.686;37.532;2023-11-19T08:20:30;100281.97;;;-4.15;91.16
75312;BME280;63906;55.686;37.532;2023-11-19T08:25:31;100274.84;;;-3.63;94.35
75312;BME280;63906;55.686;37.532;2023-11-19T08:30:33;100263.06;;;-4.14;83.66
75312;BME280;63906;55.686;37.532;2023-11-19T08:35:34;100268.03;;;-4.11;83.59
75312;BME280;63906;55.686;37.532;2023-11-19T08:40:34;100251.47;;;-3.90;77.57
75312;BME280;63906;55.686;37.532;2023-11-19T08:45:35;100200.00;;;-3.74;88.20
75312;BME280;63906;55.686;37.532;2023-11-19T08:50:36;100252.22;;;-3.72;87.84
75312;BME280;63906;55.686;37.532;2023-11-19T08:55:36;100215.41;;;-4.37;78.90
75312;BME280;63906;55.686;37.532;2023-11-19T09:00:37;100276.06;;;-4.17;88.06
75312;BME280;63906;55.686;37.532;2023-11-19T09:05:38;100215.53;;;-4.72;84.43
75312;BME280;63906;55.686;37.532;2023-11-19T09:10:38;100256.41;;;-4.34;90.41
75312;BME280;63906;55.686;37.532;2023-11-19T09:15:39;100249.41;;;-4.32;90.52
75312;BME280;63906;55.686;37.532;2023-11-19T09:20:39;100230.19;;;-4.41;89.90
75312;BME280;63906;55.686;37.532;2023-11-19T09:25:40;100208.34;;;-4.82;81.52
75312;BME280;63906;55.686;37.532;2023-11-19T09:30:41;100233.81;;;-4.45;87.19
75312;BME280;63906;55.686;37.532;2023-11-19T09:35:41;100236.91;;;-4.38;90.42
75312;BME280;63906;55.686;37.532;2023-11-19T09:40:42;100238.34;;;-4.50;81.86
75312;BME280;63906;55.686;37.532;2023-11-19T09:45:50;100232.94;;;-4.61;84.78
75312;BME280;63906;55.686;37.532;2023-11-19T09:50:51;100200.03;;;-4.70;86.06
75312;BME280;63906;55.686;37.532;2023-11-19T09:55:52;100164.72;;;-4.82;85.50
75312;BME280;63906;55.686;37.532;2023-11-19T10:00:53;100194.44;;;-4.78;78.28
75312;BME280;63906;55.686;37.532;2023-11-19T10:05:54;100140.56;;;-4.96;86.19
75312;BME280;63906;55.686;37.532;2023-11-19T10:10:55;100178.25;;;-4.47;90.18
75312;BME280;63906;55.686;37.532;2023-11-19T10:15:56;100168.53;;;-4.41;87.51
75312;BME280;63906;55.686;37.532;2023-11-19T10:21:00;100124.03;;;-4.90;75.23
75312;BME280;63906;55.686;37.532;2023-11-19T10:26:03;100176.47;;;-4.78;72.61
75312;BME280;63906;55.686;37.532;2023-11-19T10:31:07;100124.88;;;-4.74;82.85
75312;BME280;63906;55.686;37.532;2023-11-19T10:36:07;100176.44;;;-4.61;85.66
75312;BME280;63906;55.686;37.532;2023-11-19T10:41:08;100189.44;;;-4.64;84.34
75312;BME280;63906;55.686;37.532;2023-11-19T10:46:10;100196.25;;;-4.80;74.13
75312;BME280;63906;55.686;37.532;2023-11-19T10:51:13;100186.50;;;-4.74;76.77
75312;BME280;63906;55.686;37.532;2023-11-19T10:56:24;100199.94;;;-4.69;82.31
75312;BME280;63906;55.686;37.532;2023-11-19T11:01:29;100133.50;;;-4.75;84.64
75312;BME280;63906;55.686;37.532;2023-11-19T11:06:34;100178.22;;;-4.46;84.95
75312;BME280;63906;55.686;37.532;2023-11-19T11:11:35;100173.97;;;-4.31;90.17
75312;BME280;63906;55.686;37.532;2023-11-19T11:16:37;100155.00;;;-4.44;85.05
75312;BME280;63906;55.686;37.532;2023-11-19T11:21:44;100166.13;;;-4.12;90.37
75312;BME280;63906;55.686;37.532;2023-11-19T11:32:30;100185.88;;;-4.28;87.00
75312;BME280;63906;55.686;37.532;2023-11-19T11:37:48;100149.47;;;-4.21;87.24
75312;BME280;63906;55.686;37.532;2023-11-19T11:42:51;100153.66;;;-4.36;83.15
75312;BME280;63906;55.686;37.532;2023-11-19T11:58:00;100124.00;;;-4.57;74.28
75312;BME280;63906;55.686;37.532;2023-11-19T12:03:01;100164.72;;;-4.02;89.96
75312;BME280;63906;55.686;37.532;2023-11-19T12:08:06;100076.75;;;-4.54;80.77
75312;BME280;63906;55.686;37.532;2023-11-19T12:13:07;100137.03;;;-4.28;87.60
75312;BME280;63906;55.686;37.532;2023-11-19T12:18:08;100103.69;;;-4.62;86.14
75312;BME280;63906;55.686;37.532;2023-11-19T12:23:09;100157.41;;;-4.25;82.89
75312;BME280;63906;55.686;37.532;2023-11-19T12:28:14;100118.25;;;-4.78;78.22
75312;BME280;63906;55.686;37.532;2023-11-19T12:33:15;100130.78;;;-4.56;85.41
75312;BME280;63906;55.686;37.532;2023-11-19T12:38:23;100153.25;;;-4.44;88.25
75312;BME280;63906;55.686;37.532;2023-11-19T12:43:24;100130.91;;;-4.91;83.05
75312;BME280;63906;55.686;37.532;2023-11-19T12:48:24;100140.78;;;-4.83;78.85
75312;BME280;63906;55.686;37.532;2023-11-19T12:53:26;100108.22;;;-5.16;84.35
75312;BME280;63906;55.686;37.532;2023-11-19T12:58:30;100065.47;;;-5.32;85.23
75312;BME280;63906;55.686;37.532;2023-11-19T13:03:32;100103.44;;;-5.39;77.96
75312;BME280;63906;55.686;37.532;2023-11-19T13:14:00;100107.88;;;-5.25;76.97
75312;BME280;63906;55.686;37.532;2023-11-19T13:19:01;100065.38;;;-5.64;73.69
75312;BME280;63906;55.686;37.532;2023-11-19T13:24:01;100108.59;;;-5.06;86.32
75312;BME280;63906;55.686;37.532;2023-11-19T13:29:02;100082.97;;;-4.90;88.65
75312;BME280;63906;55.686;37.532;2023-11-19T13:34:03;100087.53;;;-5.12;80.82
75312;BME280;63906;55.686;37.532;2023-11-19T13:39:03;100105.88;;;-5.03;85.61
75312;BME280;63906;55.686;37.532;2023-11-19T13:44:04;100018.59;;;-5.52;85.33
75312;BME280;63906;55.686;37.532;2023-11-19T13:49:05;100084.53;;;-4.88;90.40
75312;BME280;63906;55.686;37.532;2023-11-19T13:54:05;100091.72;;;-4.94;84.39
75312;BME280;63906;55.686;37.532;2023-11-19T13:59:06;100092.06;;;-4.84;82.77
75312;BME280;63906;55.686;37.532;2023-11-19T14:04:09;100095.13;;;-4.94;83.49
75312;BME280;63906;55.686;37.532;2023-11-19T14:09:09;100094.69;;;-5.02;85.08
75312;BME280;63906;55.686;37.532;2023-11-19T14:14:10;100063.81;;;-4.84;85.13
75312;BME280;63906;55.686;37.532;2023-11-19T14:19:10;100041.25;;;-5.27;85.72
75312;BME280;63906;55.686;37.532;2023-11-19T14:24:11;100067.53;;;-5.56;74.86
75312;BME280;63906;55.686;37.532;2023-11-19T14:29:11;100084.66;;;-5.57;79.89
75312;BME280;63906;55.686;37.532;2023-11-19T14:34:12;100077.41;;;-5.49;86.77
75312;BME280;63906;55.686;37.532;2023-11-19T14:39:13;100082.00;;;-5.05;87.95
75312;BME280;63906;55.686;37.532;2023-11-19T14:44:13;100093.19;;;-5.39;76.34
75312;BME280;63906;55.686;37.532;2023-11-19T14:49:14;100069.91;;;-5.36;77.71
75312;BME280;63906;55.686;37.532;2023-11-19T14:54:14;100062.69;;;-5.12;84.33
75312;BME280;63906;55.686;37.532;2023-11-19T14:59:16;100059.09;;;-5.08;84.98
75312;BME280;63906;55.686;37.532;2023-11-19T15:04:16;100034.44;;;-5.61;77.36
75312;BME280;63906;55.686;37.532;2023-11-19T15:09:17;100068.28;;;-5.72;77.97
75312;BME280;63906;55.686;37.532;2023-11-19T15:14:18;100049.19;;;-5.66;84.27
75312;BME280;63906;55.686;37.532;2023-11-19T15:19:19;100038.16;;;-5.33;87.99
75312;BME280;63906;55.686;37.532;2023-11-19T15:24:21;100042.50;;;-5.69;77.19
75312;BME280;63906;55.686;37.532;2023-11-19T15:29:22;100038.97;;;-5.83;75.49
75312;BME280;63906;55.686;37.532;2023-11-19T15:34:23;100045.50;;;-5.43;82.92
75312;BME280;63906;55.686;37.532;2023-11-19T15:39:25;100027.41;;;-5.57;79.44
75312;BME280;63906;55.686;37.532;2023-11-19T15:44:27;100034.25;;;-5.07;86.26
75312;BME280;63906;55.686;37.532;2023-11-19T15:49:29;100030.06;;;-5.10;89.23
75312;BME280;63906;55.686;37.532;2023-11-19T15:54:29;100024.75;;;-5.38;76.05
75312;BME280;63906;55.686;37.532;2023-11-19T15:59:30;100039.50;;;-5.26;80.79
75312;BME280;63906;55.686;37.532;2023-11-19T16:04:31;99972.16;;;-5.63;78.13
75312;BME280;63906;55.686;37.532;2023-11-19T16:09:32;100034.56;;;-4.98;89.41
75312;BME280;63906;55.686;37.532;2023-11-19T16:14:33;100022.97;;;-5.05;87.51
75312;BME280;63906;55.686;37.532;2023-11-19T16:19:33;100013.81;;;-5.42;83.64
75312;BME280;63906;55.686;37.532;2023-11-19T16:24:37;100015.53;;;-5.76;77.05
75312;BME280;63906;55.686;37.532;2023-11-19T16:29:37;100030.38;;;-5.65;81.75
75312;BME280;63906;55.686;37.532;2023-11-19T16:34:38;100029.06;;;-5.23;88.92
75312;BME280;63906;55.686;37.532;2023-11-19T16:39:43;100020.19;;;-5.66;79.15
75312;BME280;63906;55.686;37.532;2023-11-19T16:44:43;100026.75;;;-5.28;87.30
75312;BME280;63906;55.686;37.532;2023-11-19T16:49:45;100010.75;;;-5.66;80.50
75312;BME280;63906;55.686;37.532;2023-11-19T16:54:45;99976.56;;;-5.82;83.28
75312;BME280;63906;55.686;37.532;2023-11-19T16:59:46;100030.50;;;-5.51;84.08
75312;BME280;63906;55.686;37.532;2023-11-19T17:04:48;100019.94;;;-5.62;79.81
75312;BME280;63906;55.686;37.532;2023-11-19T17:09:49;100007.72;;;-5.57;78.34
75312;BME280;63906;55.686;37.532;2023-11-19T17:14:49;100001.38;;;-5.50;80.35
75312;BME280;63906;55.686;37.532;2023-11-19T17:19:50;100004.38;;;-5.42;86.29
75312;BME280;63906;55.686;37.532;2023-11-19T17:24:50;100004.88;;;-5.35;87.52
75312;BME280;63906;55.686;37.532;2023-11-19T17:29:50;100012.34;;;-5.30;87.48
75312;BME280;63906;55.686;37.532;2023-11-19T17:34:51;100001.03;;;-5.26;86.22
75312;BME280;63906;55.686;37.532;2023-11-19T17:39:51;99983.75;;;-5.73;83.25
75312;BME280;63906;55.686;37.532;2023-11-19T17:44:52;99993.25;;;-5.58;82.81
75312;BME280;63906;55.686;37.532;2023-11-19T17:49:53;99990.53;;;-5.72;81.68
75312;BME280;63906;55.686;37.532;2023-11-19T17:54:54;99996.88;;;-5.79;84.55
75312;BME280;63906;55.686;37.532;2023-11-19T17:59:55;99971.47;;;-6.00;78.27
75312;BME280;63906;55.686;37.532;2023-11-19T18:04:55;99998.22;;;-5.55;83.37
75312;BME280;63906;55.686;37.532;2023-11-19T18:09:57;99984.31;;;-5.84;86.99
75312;BME280;63906;55.686;37.532;2023-11-19T18:14:57;99980.66;;;-5.62;88.15
75312;BME280;63906;55.686;37.532;2023-11-19T18:19:58;100000.88;;;-5.41;88.09
75312;BME280;63906;55.686;37.532;2023-11-19T18:24:59;99990.53;;;-5.72;84.65
75312;BME280;63906;55.686;37.532;2023-11-19T18:30:00;99985.84;;;-5.97;84.02
75312;BME280;63906;55.686;37.532;2023-11-19T18:35:00;99992.91;;;-5.85;86.72
75312;BME280;63906;55.686;37.532;2023-11-19T18:40:01;99988.19;;;-5.92;87.36
75312;BME280;63906;55.686;37.532;2023-11-19T18:45:02;99984.88;;;-6.29;83.17
75312;BME280;63906;55.686;37.532;2023-11-19T18:50:04;99995.75;;;-6.07;84.53
75312;BME280;63906;55.686;37.532;2023-11-19T19:01:21;99988.47;;;-6.51;77.59
75312;BME280;63906;55.686;37.532;2023-11-19T19:07:03;99992.53;;;-6.46;79.30
75312;BME280;63906;55.686;37.532;2023-11-19T19:12:05;100003.22;;;-6.56;80.24
75312;BME280;63906;55.686;37.532;2023-11-19T19:17:06;99970.81;;;-6.74;83.14
75312;BME280;63906;55.686;37.532;2023-11-19T19:22:08;99980.00;;;-6.70;85.78
75312;BME280;63906;55.686;37.532;2023-11-19T19:27:09;99977.91;;;-6.62;86.33
75312;BME280;63906;55.686;37.532;2023-11-19T19:32:10;99982.88;;;-6.76;85.25
75312;BME280;63906;55.686;37.532;2023-11-19T19:37:10;99976.16;;;-6.97;81.01
75312;BME280;63906;55.686;37.532;2023-11-19T19:42:11;99985.09;;;-6.87;85.08
75312;BME280;63906;55.686;37.532;2023-11-19T19:47:12;99990.47;;;-6.93;85.99
75312;BME280;63906;55.686;37.532;2023-11-19T19:52:13;99978.91;;;-7.02;86.33
75312;BME280;63906;55.686;37.532;2023-11-19T19:57:13;99987.50;;;-7.03;86.31
75312;BME280;63906;55.686;37.532;2023-11-19T20:02:13;99967.53;;;-7.14;84.89
75312;BME280;63906;55.686;37.532;2023-11-19T20:07:14;99984.91;;;-7.01;88.03
75312;BME280;63906;55.686;37.532;2023-11-19T20:12:17;99978.63;;;-6.96;88.00
75312;BME280;63906;55.686;37.532;2023-11-19T20:17:18;99974.34;;;-7.14;86.32
75312;BME280;63906;55.686;37.532;2023-11-19T20:22:19;99960.00;;;-7.17;87.62
75312;BME280;63906;55.686;37.532;2023-11-19T20:27:20;99990.69;;;-7.17;82.21
75312;BME280;63906;55.686;37.532;2023-11-19T20:32:21;99993.44;;;-7.02;86.94
75312;BME280;63906;55.686;37.532;2023-11-19T20:37:22;99986.13;;;-7.10;86.57
75312;BME280;63906;55.686;37.532;2023-11-19T20:42:22;99934.56;;;-7.57;81.55
75312;BME280;63906;55.686;37.532;2023-11-19T20:47:23;99972.78;;;-7.17;87.01
75312;BME280;63906;55.686;37.532;2023-11-19T20:52:24;99966.91;;;-7.38;83.13
75312;BME280;63906;55.686;37.532;2023-11-19T20:57:24;99982.66;;;-7.28;86.04
75312;BME280;63906;55.686;37.532;2023-11-19T21:02:25;99976.69;;;-7.47;82.49
75312;BME280;63906;55.686;37.532;2023-11-19T21:07:25;99982.81;;;-7.31;86.63
75312;BME280;63906;55.686;37.532;2023-11-19T21:12:27;99956.66;;;-7.56;85.49
75312;BME280;63906;55.686;37.532;2023-11-19T21:17:28;99969.94;;;-7.48;87.25
75312;BME280;63906;55.686;37.532;2023-11-19T21:22:29;99959.22;;;-7.56;86.55
75312;BME280;63906;55.686;37.532;2023-11-19T21:27:59;99938.81;;;-7.58;87.48
75312;BME280;63906;55.686;37.532;2023-11-19T21:33:58;99902.53;;;-7.85;87.91
75312;BME280;63906;55.686;37.532;2023-11-19T21:46:32;99933.59;;;-7.55;85.74
75312;BME280;63906;55.686;37.532;2023-11-19T21:51:38;99884.81;;;-7.50;88.26
75312;BME280;63906;55.686;37.532;2023-11-19T21:56:43;99924.75;;;-7.29;88.43
75312;BME280;63906;55.686;37.532;2023-11-19T22:02:20;99914.53;;;-7.48;83.37
75312;BME280;63906;55.686;37.532;2023-11-19T22:08:19;99903.75;;;-7.54;84.61
75312;BME280;63906;55.686;37.532;2023-11-19T22:13:20;99908.31;;;-7.42;88.41
75312;BME280;63906;55.686;37.532;2023-11-19T22:18:21;99928.56;;;-7.19;85.77
75312;BME280;63906;55.686;37.532;2023-11-19T22:30:00;99913.59;;;-6.73;89.16
75312;BME280;63906;55.686;37.532;2023-11-19T22:42:24;99892.97;;;-6.18;91.27
75312;BME280;63906;55.686;37.532;2023-11-19T22:55:32;99887.50;;;-5.79;91.24
75312;BME280;63906;55.686;37.532;2023-11-19T23:02:07;99768.81;;;-6.28;92.29
75312;BME280;63906;55.686;37.532;2023-11-19T23:08:15;99898.44;;;-5.75;88.45
75312;BME280;63906;55.686;37.532;2023-11-19T23:32:36;99886.06;;;-5.51;89.96
75312;BME280;63906;55.686;37.532;2023-11-19T23:38:49;99855.09;;;-5.80;86.48
75312;BME280;63906;55.686;37.532;2023-11-19T23:44:18;99876.38;;;-5.62;88.23
75312;BME280;63906;55.686;37.532;2023-11-19T23:49:23;99837.75;;;-5.59;86.10
75312;BME280;63906;55.686;37.532;2023-11-19T23:54:30;99858.16;;;-5.89;81.57
75312;BME280;63906;55.686;37.532;2023-11-19T23:59:41;99828.63;;;-5.80;90.37
